KMFI

Marshfield Municipal Airport

Marshfield, Wisconsin, USA
METAR KMFI 180854Z AUTO 26005KT 2 1/2SM BR OVC002 M03/M03 A2986 RMK AO2 SLP129 I3000 T10281028 56010 TSNO
Observed Flight Rules
Dec-18 @ 08:54 UTC (11 minutes ago) Instrument Flight Rules
Wind Visibility Clouds Conditions
260° at 5 knots 2 1/2 miles
  • Overcast at 200' AGL
  • Mist
Temperatures Readings
Current -3°C / 27°F
Dewpoint -3°C / 27°F
Humidity 100%
Altimeter 29.86" Hg
Pressure 1012.9 hPa
Elevation 389
METAR KMFI 180854Z AUTO 26005KT 2 1/2SM BR OVC002 M03/M03 A2986 RMK AO2 SLP129 I3000 T10281028 56010 TSNO
Observed Flight Rules
Dec-18 @ 08:54 UTC
(11 minutes ago)
LIFR
Wind Visibility
260° at 5 knots 2 1/2 miles
Clouds
  • Overcast at 200' AGL
Conditions
  • Mist
Temperature Dewpoint
-3°C / 27°F -3°C / 27°F
Humidity Altimeter Pressure
100% 29.86" Hg 1012.9 hPa